Terminal Aerodrome Forecast
Issued by NWS Charleston, WV

Current Version | Previous Version | Graphics & Text | Print | Product List | Glossary On
Versions: 1 2 3 4 5 6 7 8 9 10 11 12 13 14 15 16 17 18 19 20 21 22 23 24
100
FTUS41 KRLX 111551 AAB
TAFBKW
TAF AMD
KBKW 111551Z 1116/1212 29010G15KT P6SM -SHSN SCT015 BKN025
      TEMPO 1116/1117 3SM -SHSN BR BKN015
     FM111800 30010G15KT P6SM SCT060
     FM120000 31006KT P6SM SCT080
     FM120600 VRB02KT P6SM BKN070=

USA.gov is the U.S. government's official web portal to all federal, state and local government web resources and services.